sensor_id;sensor_type;location;lat;lon;timestamp;P1;durP1;ratioP1;P2;durP2;ratioP2
1753;SDS011;58380;48.312;9.246;2022-07-29T06:08:01;7.07;;;5.15;;
1753;SDS011;58380;48.312;9.246;2022-07-29T06:10:30;7.95;;;5.22;;
1753;SDS011;58380;48.312;9.246;2022-07-29T06:12:59;7.90;;;4.55;;
1753;SDS011;58380;48.312;9.246;2022-07-29T06:15:27;7.30;;;5.28;;
1753;SDS011;58380;48.312;9.246;2022-07-29T06:17:56;6.38;;;4.75;;
1753;SDS011;58380;48.312;9.246;2022-07-29T06:20:24;6.43;;;4.68;;
1753;SDS011;58380;48.312;9.246;2022-07-29T06:22:54;7.30;;;4.80;;
1753;SDS011;58380;48.312;9.246;2022-07-29T06:25:26;5.47;;;4.22;;
1753;SDS011;58380;48.312;9.246;2022-07-29T06:27:57;6.85;;;5.25;;
1753;SDS011;58380;48.312;9.246;2022-07-29T06:30:26;7.15;;;5.22;;
1753;SDS011;58380;48.312;9.246;2022-07-29T06:32:54;6.60;;;4.80;;
1753;SDS011;58380;48.312;9.246;2022-07-29T06:35:23;7.60;;;4.57;;
1753;SDS011;58380;48.312;9.246;2022-07-29T06:37:52;6.10;;;4.72;;
1753;SDS011;58380;48.312;9.246;2022-07-29T06:40:20;7.20;;;4.55;;
1753;SDS011;58380;48.312;9.246;2022-07-29T06:43:04;4.93;;;4.07;;
1753;SDS011;58380;48.312;9.246;2022-07-29T06:45:33;7.60;;;4.32;;
1753;SDS011;58380;48.312;9.246;2022-07-29T06:48:03;5.50;;;4.20;;
1753;SDS011;58380;48.312;9.246;2022-07-29T06:50:33;5.47;;;4.20;;
1753;SDS011;58380;48.312;9.246;2022-07-29T06:53:01;7.63;;;4.68;;
1753;SDS011;58380;48.312;9.246;2022-07-29T06:55:31;4.57;;;3.58;;
1753;SDS011;58380;48.312;9.246;2022-07-29T06:57:59;5.00;;;3.45;;
1753;SDS011;58380;48.312;9.246;2022-07-29T07:00:31;5.53;;;4.07;;
1753;SDS011;58380;48.312;9.246;2022-07-29T07:02:59;5.68;;;3.67;;
1753;SDS011;58380;48.312;9.246;2022-07-29T07:05:28;5.45;;;3.90;;
1753;SDS011;58380;48.312;9.246;2022-07-29T07:07:56;5.90;;;3.50;;
1753;SDS011;58380;48.312;9.246;2022-07-29T07:10:25;5.05;;;3.75;;
1753;SDS011;58380;48.312;9.246;2022-07-29T07:12:54;3.92;;;2.97;;
1753;SDS011;58380;48.312;9.246;2022-07-29T07:15:23;6.28;;;3.28;;
1753;SDS011;58380;48.312;9.246;2022-07-29T07:17:54;5.43;;;3.20;;
1753;SDS011;58380;48.312;9.246;2022-07-29T07:20:23;6.22;;;3.47;;
1753;SDS011;58380;48.312;9.246;2022-07-29T07:22:52;5.25;;;3.08;;
1753;SDS011;58380;48.312;9.246;2022-07-29T07:25:20;7.47;;;3.08;;
1753;SDS011;58380;48.312;9.246;2022-07-29T07:27:49;3.85;;;2.83;;
1753;SDS011;58380;48.312;9.246;2022-07-29T07:30:18;4.38;;;2.70;;
1753;SDS011;58380;48.312;9.246;2022-07-29T07:32:46;11.60;;;3.25;;
1753;SDS011;58380;48.312;9.246;2022-07-29T07:35:17;4.90;;;3.30;;
1753;SDS011;58380;48.312;9.246;2022-07-29T07:37:46;5.38;;;2.78;;
1753;SDS011;58380;48.312;9.246;2022-07-29T07:40:15;5.90;;;2.90;;
1753;SDS011;58380;48.312;9.246;2022-07-29T07:42:44;5.28;;;2.85;;
1753;SDS011;58380;48.312;9.246;2022-07-29T07:45:12;3.60;;;2.75;;
1753;SDS011;58380;48.312;9.246;2022-07-29T07:47:41;3.55;;;2.67;;
1753;SDS011;58380;48.312;9.246;2022-07-29T07:50:10;5.25;;;2.40;;
1753;SDS011;58380;48.312;9.246;2022-07-29T07:52:48;3.58;;;2.05;;
1753;SDS011;58380;48.312;9.246;2022-07-29T07:55:20;2.97;;;2.17;;
1753;SDS011;58380;48.312;9.246;2022-07-29T07:57:49;3.88;;;2.55;;
1753;SDS011;58380;48.312;9.246;2022-07-29T08:00:17;4.22;;;2.30;;
1753;SDS011;58380;48.312;9.246;2022-07-29T08:02:46;4.38;;;2.10;;
1753;SDS011;58380;48.312;9.246;2022-07-29T08:05:14;5.28;;;2.65;;
1753;SDS011;58380;48.312;9.246;2022-07-29T08:07:45;6.55;;;2.50;;
1753;SDS011;58380;48.312;9.246;2022-07-29T08:10:17;6.45;;;2.55;;
1753;SDS011;58380;48.312;9.246;2022-07-29T08:13:01;3.38;;;2.50;;
1753;SDS011;58380;48.312;9.246;2022-07-29T08:15:30;5.30;;;2.35;;
1753;SDS011;58380;48.312;9.246;2022-07-29T08:17:59;4.25;;;2.55;;
1753;SDS011;58380;48.312;9.246;2022-07-29T08:20:28;4.22;;;2.08;;
1753;SDS011;58380;48.312;9.246;2022-07-29T08:23:00;5.28;;;2.20;;
1753;SDS011;58380;48.312;9.246;2022-07-29T08:25:31;5.47;;;2.55;;
1753;SDS011;58380;48.312;9.246;2022-07-29T08:27:59;4.72;;;2.20;;
1753;SDS011;58380;48.312;9.246;2022-07-29T08:30:28;3.70;;;1.90;;
1753;SDS011;58380;48.312;9.246;2022-07-29T08:32:57;2.90;;;1.85;;
1753;SDS011;58380;48.312;9.246;2022-07-29T08:35:26;2.88;;;1.95;;
1753;SDS011;58380;48.312;9.246;2022-07-29T08:37:54;2.15;;;1.70;;
1753;SDS011;58380;48.312;9.246;2022-07-29T08:40:26;4.53;;;2.30;;
1753;SDS011;58380;48.312;9.246;2022-07-29T08:42:54;4.55;;;2.08;;
1753;SDS011;58380;48.312;9.246;2022-07-29T08:45:23;3.67;;;1.83;;
1753;SDS011;58380;48.312;9.246;2022-07-29T08:47:54;2.40;;;1.77;;
1753;SDS011;58380;48.312;9.246;2022-07-29T08:50:23;3.83;;;1.88;;
1753;SDS011;58380;48.312;9.246;2022-07-29T08:52:52;3.30;;;1.85;;
1753;SDS011;58380;48.312;9.246;2022-07-29T08:55:21;5.05;;;2.20;;
1753;SDS011;58380;48.312;9.246;2022-07-29T08:57:52;3.67;;;2.00;;
1753;SDS011;58380;48.312;9.246;2022-07-29T09:00:22;2.55;;;1.98;;
1753;SDS011;58380;48.312;9.246;2022-07-29T09:02:56;4.50;;;2.40;;
1753;SDS011;58380;48.312;9.246;2022-07-29T09:05:26;6.75;;;2.20;;
1753;SDS011;58380;48.312;9.246;2022-07-29T09:07:56;4.85;;;2.25;;
1753;SDS011;58380;48.312;9.246;2022-07-29T09:10:26;6.57;;;2.88;;
1753;SDS011;58380;48.312;9.246;2022-07-29T09:12:57;3.40;;;2.42;;
1753;SDS011;58380;48.312;9.246;2022-07-29T09:15:26;3.78;;;2.22;;
1753;SDS011;58380;48.312;9.246;2022-07-29T09:17:55;3.15;;;2.15;;
1753;SDS011;58380;48.312;9.246;2022-07-29T09:20:25;13.65;;;2.55;;
1753;SDS011;58380;48.312;9.246;2022-07-29T09:23:14;6.60;;;2.53;;
1753;SDS011;58380;48.312;9.246;2022-07-29T09:25:42;3.75;;;2.60;;
1753;SDS011;58380;48.312;9.246;2022-07-29T09:28:14;4.30;;;2.38;;
1753;SDS011;58380;48.312;9.246;2022-07-29T09:30:51;4.82;;;2.60;;
1753;SDS011;58380;48.312;9.246;2022-07-29T09:33:22;5.22;;;2.50;;
1753;SDS011;58380;48.312;9.246;2022-07-29T09:35:59;2.85;;;2.47;;
1753;SDS011;58380;48.312;9.246;2022-07-29T09:38:31;3.58;;;2.65;;
1753;SDS011;58380;48.312;9.246;2022-07-29T09:41:02;3.75;;;2.70;;
1753;SDS011;58380;48.312;9.246;2022-07-29T09:43:36;7.47;;;2.38;;
1753;SDS011;58380;48.312;9.246;2022-07-29T09:46:09;4.72;;;2.78;;
1753;SDS011;58380;48.312;9.246;2022-07-29T09:48:39;4.75;;;2.40;;
1753;SDS011;58380;48.312;9.246;2022-07-29T09:51:16;5.53;;;2.30;;
1753;SDS011;58380;48.312;9.246;2022-07-29T09:53:46;7.10;;;2.60;;
1753;SDS011;58380;48.312;9.246;2022-07-29T09:56:15;4.45;;;2.70;;
1753;SDS011;58380;48.312;9.246;2022-07-29T09:58:46;4.78;;;2.28;;
1753;SDS011;58380;48.312;9.246;2022-07-29T10:01:15;4.22;;;2.50;;
1753;SDS011;58380;48.312;9.246;2022-07-29T10:03:50;3.28;;;2.00;;
1753;SDS011;58380;48.312;9.246;2022-07-29T10:06:20;6.00;;;2.28;;
1753;SDS011;58380;48.312;9.246;2022-07-29T10:08:49;7.00;;;2.75;;
1753;SDS011;58380;48.312;9.246;2022-07-29T10:11:18;5.70;;;2.80;;
1753;SDS011;58380;48.312;9.246;2022-07-29T10:13:50;4.75;;;2.30;;
1753;SDS011;58380;48.312;9.246;2022-07-29T10:16:18;5.85;;;2.45;;
1753;SDS011;58380;48.312;9.246;2022-07-29T10:18:47;5.05;;;2.47;;
1753;SDS011;58380;48.312;9.246;2022-07-29T10:21:16;5.35;;;2.47;;
1753;SDS011;58380;48.312;9.246;2022-07-29T10:23:45;7.68;;;2.25;;
1753;SDS011;58380;48.312;9.246;2022-07-29T10:26:14;5.60;;;2.30;;
1753;SDS011;58380;48.312;9.246;2022-07-29T10:28:44;5.85;;;2.70;;
1753;SDS011;58380;48.312;9.246;2022-07-29T10:31:19;8.00;;;2.45;;
1753;SDS011;58380;48.312;9.246;2022-07-29T10:33:59;5.55;;;2.58;;
1753;SDS011;58380;48.312;9.246;2022-07-29T10:36:45;4.60;;;2.40;;
1753;SDS011;58380;48.312;9.246;2022-07-29T10:39:31;3.55;;;2.45;;
1753;SDS011;58380;48.312;9.246;2022-07-29T10:42:17;3.08;;;2.20;;
1753;SDS011;58380;48.312;9.246;2022-07-29T10:44:49;5.20;;;2.55;;
1753;SDS011;58380;48.312;9.246;2022-07-29T10:47:24;4.40;;;2.63;;
1753;SDS011;58380;48.312;9.246;2022-07-29T10:49:55;4.18;;;2.53;;
1753;SDS011;58380;48.312;9.246;2022-07-29T10:55:32;4.43;;;2.65;;
1753;SDS011;58380;48.312;9.246;2022-07-29T10:58:11;4.22;;;2.63;;
1753;SDS011;58380;48.312;9.246;2022-07-29T11:00:45;5.00;;;2.92;;
1753;SDS011;58380;48.312;9.246;2022-07-29T11:06:17;5.60;;;2.80;;
1753;SDS011;58380;48.312;9.246;2022-07-29T11:08:46;6.10;;;2.88;;
1753;SDS011;58380;48.312;9.246;2022-07-29T11:11:47;4.55;;;2.17;;
1753;SDS011;58380;48.312;9.246;2022-07-29T11:14:15;7.47;;;2.35;;
1753;SDS011;58380;48.312;9.246;2022-07-29T11:16:57;4.93;;;2.60;;
1753;SDS011;58380;48.312;9.246;2022-07-29T11:19:35;4.25;;;2.63;;
1753;SDS011;58380;48.312;9.246;2022-07-29T11:22:08;3.80;;;2.58;;
1753;SDS011;58380;48.312;9.246;2022-07-29T11:24:37;3.50;;;2.45;;
1753;SDS011;58380;48.312;9.246;2022-07-29T11:27:15;3.50;;;2.30;;
1753;SDS011;58380;48.312;9.246;2022-07-29T11:29:48;3.97;;;2.53;;
1753;SDS011;58380;48.312;9.246;2022-07-29T11:32:20;4.15;;;2.10;;
1753;SDS011;58380;48.312;9.246;2022-07-29T11:38:22;3.53;;;2.30;;
1753;SDS011;58380;48.312;9.246;2022-07-29T11:43:50;4.20;;;2.63;;
1753;SDS011;58380;48.312;9.246;2022-07-29T11:49:18;6.20;;;2.65;;
1753;SDS011;58380;48.312;9.246;2022-07-29T11:51:50;5.18;;;2.08;;
1753;SDS011;58380;48.312;9.246;2022-07-29T11:54:24;4.20;;;1.95;;
1753;SDS011;58380;48.312;9.246;2022-07-29T11:56:58;3.38;;;2.00;;
1753;SDS011;58380;48.312;9.246;2022-07-29T11:59:27;3.80;;;1.90;;
1753;SDS011;58380;48.312;9.246;2022-07-29T12:01:58;6.57;;;1.95;;
1753;SDS011;58380;48.312;9.246;2022-07-29T12:04:27;4.07;;;1.90;;
1753;SDS011;58380;48.312;9.246;2022-07-29T12:06:56;4.68;;;1.73;;
1753;SDS011;58380;48.312;9.246;2022-07-29T12:09:27;3.08;;;1.88;;
1753;SDS011;58380;48.312;9.246;2022-07-29T12:12:25;3.88;;;1.88;;
1753;SDS011;58380;48.312;9.246;2022-07-29T12:14:55;7.07;;;2.00;;
1753;SDS011;58380;48.312;9.246;2022-07-29T12:17:27;3.22;;;1.75;;
1753;SDS011;58380;48.312;9.246;2022-07-29T12:20:08;8.30;;;1.70;;
1753;SDS011;58380;48.312;9.246;2022-07-29T12:22:42;5.75;;;2.13;;
1753;SDS011;58380;48.312;9.246;2022-07-29T12:25:16;5.50;;;1.90;;
1753;SDS011;58380;48.312;9.246;2022-07-29T12:27:47;2.40;;;1.52;;
1753;SDS011;58380;48.312;9.246;2022-07-29T12:30:33;4.18;;;1.88;;
1753;SDS011;58380;48.312;9.246;2022-07-29T12:33:15;3.72;;;1.60;;
1753;SDS011;58380;48.312;9.246;2022-07-29T12:35:48;3.40;;;1.52;;
1753;SDS011;58380;48.312;9.246;2022-07-29T12:38:19;3.00;;;1.80;;
1753;SDS011;58380;48.312;9.246;2022-07-29T12:40:51;6.82;;;1.60;;
1753;SDS011;58380;48.312;9.246;2022-07-29T12:43:22;2.25;;;1.10;;
1753;SDS011;58380;48.312;9.246;2022-07-29T12:45:52;2.35;;;1.35;;
1753;SDS011;58380;48.312;9.246;2022-07-29T12:48:32;4.80;;;1.98;;
1753;SDS011;58380;48.312;9.246;2022-07-29T12:51:03;4.57;;;1.40;;
1753;SDS011;58380;48.312;9.246;2022-07-29T12:53:34;3.60;;;1.60;;
1753;SDS011;58380;48.312;9.246;2022-07-29T12:56:06;3.13;;;1.83;;
1753;SDS011;58380;48.312;9.246;2022-07-29T12:58:44;3.15;;;1.90;;
1753;SDS011;58380;48.312;9.246;2022-07-29T13:01:13;4.88;;;1.95;;
1753;SDS011;58380;48.312;9.246;2022-07-29T13:03:45;4.28;;;2.28;;
1753;SDS011;58380;48.312;9.246;2022-07-29T13:06:32;3.38;;;2.35;;
1753;SDS011;58380;48.312;9.246;2022-07-29T13:09:05;3.75;;;2.30;;
1753;SDS011;58380;48.312;9.246;2022-07-29T13:11:41;5.57;;;2.50;;
1753;SDS011;58380;48.312;9.246;2022-07-29T13:14:13;5.22;;;2.20;;
1753;SDS011;58380;48.312;9.246;2022-07-29T13:17:01;5.05;;;2.50;;
1753;SDS011;58380;48.312;9.246;2022-07-29T13:19:33;7.00;;;2.33;;
1753;SDS011;58380;48.312;9.246;2022-07-29T13:22:05;4.20;;;2.10;;
1753;SDS011;58380;48.312;9.246;2022-07-29T13:24:44;4.95;;;2.08;;
1753;SDS011;58380;48.312;9.246;2022-07-29T13:27:21;3.67;;;2.40;;
1753;SDS011;58380;48.312;9.246;2022-07-29T13:29:52;3.63;;;2.25;;
1753;SDS011;58380;48.312;9.246;2022-07-29T13:32:24;4.07;;;2.60;;
1753;SDS011;58380;48.312;9.246;2022-07-29T13:34:55;5.30;;;2.50;;
1753;SDS011;58380;48.312;9.246;2022-07-29T13:37:25;8.73;;;2.35;;
1753;SDS011;58380;48.312;9.246;2022-07-29T13:39:54;3.50;;;2.17;;
1753;SDS011;58380;48.312;9.246;2022-07-29T13:42:26;4.00;;;2.22;;
1753;SDS011;58380;48.312;9.246;2022-07-29T13:44:55;5.38;;;2.40;;
1753;SDS011;58380;48.312;9.246;2022-07-29T13:47:23;3.92;;;2.10;;
1753;SDS011;58380;48.312;9.246;2022-07-29T13:49:53;4.60;;;2.53;;
1753;SDS011;58380;48.312;9.246;2022-07-29T13:52:22;4.28;;;2.20;;
1753;SDS011;58380;48.312;9.246;2022-07-29T13:54:50;10.43;;;2.60;;
1753;SDS011;58380;48.312;9.246;2022-07-29T13:57:19;9.50;;;2.45;;
1753;SDS011;58380;48.312;9.246;2022-07-29T13:59:50;8.13;;;1.88;;
1753;SDS011;58380;48.312;9.246;2022-07-29T14:02:18;4.55;;;2.15;;
1753;SDS011;58380;48.312;9.246;2022-07-29T14:04:47;7.47;;;2.00;;
1753;SDS011;58380;48.312;9.246;2022-07-29T14:07:16;7.63;;;1.73;;
1753;SDS011;58380;48.312;9.246;2022-07-29T14:09:44;6.25;;;1.92;;
1753;SDS011;58380;48.312;9.246;2022-07-29T14:12:13;3.20;;;1.70;;
1753;SDS011;58380;48.312;9.246;2022-07-29T14:14:41;4.32;;;2.00;;
1753;SDS011;58380;48.312;9.246;2022-07-29T14:17:12;3.38;;;1.98;;
1753;SDS011;58380;48.312;9.246;2022-07-29T14:19:41;3.88;;;2.08;;
1753;SDS011;58380;48.312;9.246;2022-07-29T14:22:10;3.00;;;2.00;;
1753;SDS011;58380;48.312;9.246;2022-07-29T14:24:38;3.22;;;2.10;;
1753;SDS011;58380;48.312;9.246;2022-07-29T14:27:07;3.30;;;2.50;;
1753;SDS011;58380;48.312;9.246;2022-07-29T14:29:36;6.18;;;2.83;;
1753;SDS011;58380;48.312;9.246;2022-07-29T14:32:05;4.60;;;2.50;;
1753;SDS011;58380;48.312;9.246;2022-07-29T14:34:37;5.45;;;2.75;;
1753;SDS011;58380;48.312;9.246;2022-07-29T14:37:06;4.25;;;2.00;;
1753;SDS011;58380;48.312;9.246;2022-07-29T14:39:35;3.30;;;2.15;;
1753;SDS011;58380;48.312;9.246;2022-07-29T14:42:04;5.10;;;2.40;;
1753;SDS011;58380;48.312;9.246;2022-07-29T14:44:33;3.15;;;2.20;;
1753;SDS011;58380;48.312;9.246;2022-07-29T14:47:01;3.90;;;2.70;;
1753;SDS011;58380;48.312;9.246;2022-07-29T14:49:30;6.50;;;2.60;;
1753;SDS011;58380;48.312;9.246;2022-07-29T14:52:01;3.55;;;2.30;;
1753;SDS011;58380;48.312;9.246;2022-07-29T14:54:30;4.80;;;2.67;;
1753;SDS011;58380;48.312;9.246;2022-07-29T14:56:59;5.90;;;3.28;;
1753;SDS011;58380;48.312;9.246;2022-07-29T14:59:28;4.18;;;2.53;;
1753;SDS011;58380;48.312;9.246;2022-07-29T15:01:56;6.75;;;3.05;;
1753;SDS011;58380;48.312;9.246;2022-07-29T15:04:25;4.93;;;2.78;;
1753;SDS011;58380;48.312;9.246;2022-07-29T15:06:53;3.47;;;2.30;;
1753;SDS011;58380;48.312;9.246;2022-07-29T15:09:25;4.10;;;2.53;;
1753;SDS011;58380;48.312;9.246;2022-07-29T15:11:53;5.47;;;2.85;;
1753;SDS011;58380;48.312;9.246;2022-07-29T15:14:22;5.43;;;2.70;;
1753;SDS011;58380;48.312;9.246;2022-07-29T15:16:51;5.80;;;2.53;;
1753;SDS011;58380;48.312;9.246;2022-07-29T15:19:19;2.85;;;2.25;;
1753;SDS011;58380;48.312;9.246;2022-07-29T15:21:48;4.30;;;2.35;;
1753;SDS011;58380;48.312;9.246;2022-07-29T15:24:17;3.58;;;2.63;;
1753;SDS011;58380;48.312;9.246;2022-07-29T15:26:48;3.60;;;2.50;;
1753;SDS011;58380;48.312;9.246;2022-07-29T15:29:16;4.80;;;2.70;;
1753;SDS011;58380;48.312;9.246;2022-07-29T15:31:45;3.90;;;2.63;;
1753;SDS011;58380;48.312;9.246;2022-07-29T15:34:13;4.43;;;2.78;;
1753;SDS011;58380;48.312;9.246;2022-07-29T15:36:42;3.97;;;2.33;;
1753;SDS011;58380;48.312;9.246;2022-07-29T15:39:11;4.13;;;2.83;;
1753;SDS011;58380;48.312;9.246;2022-07-29T15:41:42;6.43;;;2.92;;
1753;SDS011;58380;48.312;9.246;2022-07-29T15:44:13;4.35;;;2.60;;
1753;SDS011;58380;48.312;9.246;2022-07-29T15:46:42;6.90;;;2.30;;
1753;SDS011;58380;48.312;9.246;2022-07-29T15:49:23;6.00;;;2.42;;
1753;SDS011;58380;48.312;9.246;2022-07-29T15:51:56;3.42;;;2.28;;
1753;SDS011;58380;48.312;9.246;2022-07-29T15:54:25;4.57;;;2.80;;
1753;SDS011;58380;48.312;9.246;2022-07-29T15:56:55;4.93;;;2.90;;
1753;SDS011;58380;48.312;9.246;2022-07-29T15:59:26;4.60;;;2.67;;
1753;SDS011;58380;48.312;9.246;2022-07-29T16:01:55;6.63;;;2.72;;
1753;SDS011;58380;48.312;9.246;2022-07-29T16:04:24;6.15;;;2.63;;
1753;SDS011;58380;48.312;9.246;2022-07-29T16:06:53;4.15;;;2.50;;
1753;SDS011;58380;48.312;9.246;2022-07-29T16:09:22;3.45;;;2.30;;
1753;SDS011;58380;48.312;9.246;2022-07-29T16:11:51;3.58;;;2.63;;
1753;SDS011;58380;48.312;9.246;2022-07-29T16:14:20;5.90;;;2.65;;
1753;SDS011;58380;48.312;9.246;2022-07-29T16:16:52;3.95;;;2.80;;
1753;SDS011;58380;48.312;9.246;2022-07-29T16:19:20;4.13;;;2.60;;
1753;SDS011;58380;48.312;9.246;2022-07-29T16:21:49;4.18;;;2.50;;
1753;SDS011;58380;48.312;9.246;2022-07-29T16:24:17;3.83;;;2.55;;
1753;SDS011;58380;48.312;9.246;2022-07-29T16:26:46;5.13;;;2.63;;
1753;SDS011;58380;48.312;9.246;2022-07-29T16:29:14;4.18;;;2.45;;
1753;SDS011;58380;48.312;9.246;2022-07-29T16:31:43;3.88;;;2.50;;
1753;SDS011;58380;48.312;9.246;2022-07-29T16:34:14;4.45;;;2.65;;
1753;SDS011;58380;48.312;9.246;2022-07-29T16:36:43;3.75;;;2.33;;
1753;SDS011;58380;48.312;9.246;2022-07-29T16:39:11;5.45;;;2.40;;
1753;SDS011;58380;48.312;9.246;2022-07-29T16:41:40;5.05;;;2.30;;
1753;SDS011;58380;48.312;9.246;2022-07-29T16:44:08;10.27;;;2.38;;
1753;SDS011;58380;48.312;9.246;2022-07-29T16:46:36;4.20;;;2.30;;
1753;SDS011;58380;48.312;9.246;2022-07-29T16:49:05;7.10;;;2.30;;
1753;SDS011;58380;48.312;9.246;2022-07-29T16:51:36;4.85;;;2.35;;
1753;SDS011;58380;48.312;9.246;2022-07-29T16:54:05;4.18;;;2.22;;
1753;SDS011;58380;48.312;9.246;2022-07-29T16:56:34;5.40;;;1.95;;
1753;SDS011;58380;48.312;9.246;2022-07-29T16:59:03;4.32;;;2.40;;
1753;SDS011;58380;48.312;9.246;2022-07-29T17:01:31;5.25;;;2.65;;
1753;SDS011;58380;48.312;9.246;2022-07-29T17:04:00;6.43;;;2.30;;
1753;SDS011;58380;48.312;9.246;2022-07-29T17:06:38;7.38;;;2.70;;
1753;SDS011;58380;48.312;9.246;2022-07-29T17:09:09;4.35;;;2.22;;
1753;SDS011;58380;48.312;9.246;2022-07-29T17:11:40;3.63;;;2.50;;
1753;SDS011;58380;48.312;9.246;2022-07-29T17:14:09;4.32;;;2.53;;
1753;SDS011;58380;48.312;9.246;2022-07-29T17:16:38;5.55;;;2.40;;
1753;SDS011;58380;48.312;9.246;2022-07-29T17:19:06;5.15;;;2.83;;
1753;SDS011;58380;48.312;9.246;2022-07-29T17:21:34;3.78;;;2.42;;
1753;SDS011;58380;48.312;9.246;2022-07-29T17:24:06;3.67;;;2.30;;
1753;SDS011;58380;48.312;9.246;2022-07-29T17:26:35;5.88;;;3.22;;
1753;SDS011;58380;48.312;9.246;2022-07-29T17:29:03;6.10;;;2.90;;
1753;SDS011;58380;48.312;9.246;2022-07-29T17:31:32;4.95;;;3.17;;
1753;SDS011;58380;48.312;9.246;2022-07-29T17:34:00;6.00;;;3.28;;
1753;SDS011;58380;48.312;9.246;2022-07-29T17:36:31;5.18;;;3.30;;
1753;SDS011;58380;48.312;9.246;2022-07-29T17:39:03;6.28;;;3.42;;
1753;SDS011;58380;48.312;9.246;2022-07-29T17:41:35;10.75;;;3.47;;
1753;SDS011;58380;48.312;9.246;2022-07-29T17:44:05;9.07;;;4.80;;
1753;SDS011;58380;48.312;9.246;2022-07-29T17:46:33;6.90;;;3.47;;
1753;SDS011;58380;48.312;9.246;2022-07-29T17:49:02;4.43;;;3.22;;
1753;SDS011;58380;48.312;9.246;2022-07-29T17:51:31;6.95;;;2.90;;
1753;SDS011;58380;48.312;9.246;2022-07-29T17:54:00;4.55;;;3.10;;
1753;SDS011;58380;48.312;9.246;2022-07-29T17:56:31;7.25;;;3.22;;
1753;SDS011;58380;48.312;9.246;2022-07-29T17:59:00;6.32;;;3.45;;
1753;SDS011;58380;48.312;9.246;2022-07-29T18:01:30;4.63;;;3.05;;
1753;SDS011;58380;48.312;9.246;2022-07-29T18:03:59;3.75;;;2.90;;
1753;SDS011;58380;48.312;9.246;2022-07-29T18:06:28;4.38;;;3.20;;
1753;SDS011;58380;48.312;9.246;2022-07-29T18:08:57;6.60;;;3.30;;
1753;SDS011;58380;48.312;9.246;2022-07-29T18:11:28;5.97;;;3.17;;
1753;SDS011;58380;48.312;9.246;2022-07-29T18:13:57;6.50;;;3.40;;
1753;SDS011;58380;48.312;9.246;2022-07-29T18:16:26;6.93;;;3.00;;
1753;SDS011;58380;48.312;9.246;2022-07-29T18:18:54;5.13;;;3.10;;
1753;SDS011;58380;48.312;9.246;2022-07-29T18:21:23;5.80;;;3.10;;
1753;SDS011;58380;48.312;9.246;2022-07-29T18:23:52;5.55;;;3.13;;
1753;SDS011;58380;48.312;9.246;2022-07-29T18:26:21;5.88;;;3.20;;
1753;SDS011;58380;48.312;9.246;2022-07-29T18:28:52;7.30;;;3.20;;
1753;SDS011;58380;48.312;9.246;2022-07-29T18:31:21;8.10;;;3.30;;
1753;SDS011;58380;48.312;9.246;2022-07-29T18:33:49;6.55;;;3.30;;
1753;SDS011;58380;48.312;9.246;2022-07-29T18:36:18;5.53;;;3.05;;
1753;SDS011;58380;48.312;9.246;2022-07-29T18:38:46;4.90;;;3.10;;
1753;SDS011;58380;48.312;9.246;2022-07-29T18:41:15;4.28;;;3.05;;
1753;SDS011;58380;48.312;9.246;2022-07-29T18:43:43;6.13;;;2.95;;
1753;SDS011;58380;48.312;9.246;2022-07-29T18:46:14;6.80;;;3.38;;
1753;SDS011;58380;48.312;9.246;2022-07-29T18:48:43;16.55;;;6.60;;
1753;SDS011;58380;48.312;9.246;2022-07-29T18:51:12;8.00;;;4.07;;
1753;SDS011;58380;48.312;9.246;2022-07-29T18:53:40;9.10;;;4.50;;
1753;SDS011;58380;48.312;9.246;2022-07-29T18:56:09;7.53;;;3.40;;
1753;SDS011;58380;48.312;9.246;2022-07-29T18:58:37;6.43;;;3.58;;
1753;SDS011;58380;48.312;9.246;2022-07-29T19:01:06;6.93;;;3.08;;
1753;SDS011;58380;48.312;9.246;2022-07-29T19:03:37;17.73;;;5.30;;
1753;SDS011;58380;48.312;9.246;2022-07-29T19:06:08;6.85;;;4.05;;
1753;SDS011;58380;48.312;9.246;2022-07-29T19:08:36;6.18;;;3.30;;
1753;SDS011;58380;48.312;9.246;2022-07-29T19:11:05;7.57;;;3.30;;
1753;SDS011;58380;48.312;9.246;2022-07-29T19:13:34;8.35;;;2.95;;
1753;SDS011;58380;48.312;9.246;2022-07-29T19:16:03;4.72;;;3.05;;
1753;SDS011;58380;48.312;9.246;2022-07-29T19:18:38;4.07;;;2.88;;
1753;SDS011;58380;48.312;9.246;2022-07-29T19:21:07;6.38;;;3.20;;
1753;SDS011;58380;48.312;9.246;2022-07-29T19:23:36;5.18;;;3.10;;
1753;SDS011;58380;48.312;9.246;2022-07-29T19:26:04;7.38;;;3.40;;
1753;SDS011;58380;48.312;9.246;2022-07-29T19:28:33;6.88;;;3.58;;
1753;SDS011;58380;48.312;9.246;2022-07-29T19:31:01;5.80;;;3.33;;
1753;SDS011;58380;48.312;9.246;2022-07-29T19:33:31;4.50;;;2.90;;
1753;SDS011;58380;48.312;9.246;2022-07-29T19:36:03;7.15;;;3.60;;
1753;SDS011;58380;48.312;9.246;2022-07-29T19:38:32;7.07;;;3.75;;
1753;SDS011;58380;48.312;9.246;2022-07-29T19:41:02;5.45;;;3.92;;
1753;SDS011;58380;48.312;9.246;2022-07-29T19:43:31;7.68;;;3.72;;
1753;SDS011;58380;48.312;9.246;2022-07-29T19:45:59;7.05;;;3.90;;
1753;SDS011;58380;48.312;9.246;2022-07-29T19:48:28;6.07;;;3.30;;
1753;SDS011;58380;48.312;9.246;2022-07-29T19:50:56;4.63;;;3.45;;
1753;SDS011;58380;48.312;9.246;2022-07-29T19:53:28;7.70;;;3.60;;
1753;SDS011;58380;48.312;9.246;2022-07-29T19:55:56;6.32;;;3.83;;
1753;SDS011;58380;48.312;9.246;2022-07-29T19:58:25;7.43;;;4.40;;
1753;SDS011;58380;48.312;9.246;2022-07-29T20:00:54;4.95;;;3.75;;
1753;SDS011;58380;48.312;9.246;2022-07-29T20:03:22;7.53;;;3.53;;
1753;SDS011;58380;48.312;9.246;2022-07-29T20:05:51;8.20;;;3.88;;
1753;SDS011;58380;48.312;9.246;2022-07-29T20:08:20;7.25;;;4.38;;
1753;SDS011;58380;48.312;9.246;2022-07-29T20:10:51;5.65;;;3.83;;
1753;SDS011;58380;48.312;9.246;2022-07-29T20:13:20;6.82;;;3.65;;
1753;SDS011;58380;48.312;9.246;2022-07-29T20:15:48;5.95;;;4.00;;
1753;SDS011;58380;48.312;9.246;2022-07-29T20:18:17;6.32;;;3.78;;
1753;SDS011;58380;48.312;9.246;2022-07-29T20:20:45;8.32;;;4.22;;
1753;SDS011;58380;48.312;9.246;2022-07-29T20:23:14;8.52;;;4.28;;
1753;SDS011;58380;48.312;9.246;2022-07-29T20:25:46;5.38;;;3.85;;
1753;SDS011;58380;48.312;9.246;2022-07-29T20:28:17;8.00;;;4.43;;
1753;SDS011;58380;48.312;9.246;2022-07-29T20:30:45;8.50;;;4.22;;
1753;SDS011;58380;48.312;9.246;2022-07-29T20:33:14;8.30;;;4.32;;
1753;SDS011;58380;48.312;9.246;2022-07-29T20:35:42;6.70;;;4.03;;
1753;SDS011;58380;48.312;9.246;2022-07-29T20:38:11;9.93;;;4.15;;
1753;SDS011;58380;48.312;9.246;2022-07-29T20:40:40;9.73;;;4.50;;
1753;SDS011;58380;48.312;9.246;2022-07-29T20:43:08;7.78;;;4.72;;
1753;SDS011;58380;48.312;9.246;2022-07-29T20:45:39;7.57;;;4.70;;
1753;SDS011;58380;48.312;9.246;2022-07-29T20:48:08;8.55;;;4.82;;
1753;SDS011;58380;48.312;9.246;2022-07-29T20:50:37;8.80;;;4.72;;
1753;SDS011;58380;48.312;9.246;2022-07-29T20:53:06;9.18;;;4.55;;
1753;SDS011;58380;48.312;9.246;2022-07-29T20:55:35;8.98;;;4.82;;
1753;SDS011;58380;48.312;9.246;2022-07-29T20:58:05;7.43;;;4.40;;
1753;SDS011;58380;48.312;9.246;2022-07-29T21:00:33;7.65;;;4.80;;
1753;SDS011;58380;48.312;9.246;2022-07-29T21:03:04;9.13;;;4.80;;
1753;SDS011;58380;48.312;9.246;2022-07-29T21:05:34;8.38;;;4.43;;
1753;SDS011;58380;48.312;9.246;2022-07-29T21:08:06;7.00;;;4.78;;
1753;SDS011;58380;48.312;9.246;2022-07-29T21:10:35;5.75;;;4.28;;
1753;SDS011;58380;48.312;9.246;2022-07-29T21:13:03;6.20;;;4.45;;
1753;SDS011;58380;48.312;9.246;2022-07-29T21:15:32;7.85;;;4.93;;
1753;SDS011;58380;48.312;9.246;2022-07-29T21:18:01;11.55;;;4.70;;
1753;SDS011;58380;48.312;9.246;2022-07-29T21:20:35;7.20;;;4.25;;
1753;SDS011;58380;48.312;9.246;2022-07-29T21:23:04;5.80;;;4.00;;
1753;SDS011;58380;48.312;9.246;2022-07-29T21:25:32;5.80;;;3.95;;
1753;SDS011;58380;48.312;9.246;2022-07-29T21:28:01;7.50;;;4.13;;
1753;SDS011;58380;48.312;9.246;2022-07-29T21:30:42;7.22;;;4.40;;
